createdAt,value
2024-01-04T00:00:08.636Z,7.61
2024-01-04T00:02:59.548Z,7.60
2024-01-04T00:05:30.545Z,7.59
2024-01-04T00:08:01.406Z,7.60
2024-01-04T00:10:32.270Z,7.60
2024-01-04T00:13:03.123Z,7.59
2024-01-04T00:15:33.892Z,7.56
2024-01-04T00:18:05.154Z,7.53
2024-01-04T00:20:36.226Z,7.48
2024-01-04T00:23:07.246Z,7.43
2024-01-04T00:25:38.078Z,7.39
2024-01-04T00:28:09.662Z,7.36
2024-01-04T00:30:40.526Z,7.32
2024-01-04T00:33:11.421Z,7.31
2024-01-04T00:35:42.436Z,7.29
2024-01-04T00:38:13.199Z,7.25
2024-01-04T00:40:44.627Z,7.23
2024-01-04T00:43:15.499Z,7.18
2024-01-04T00:45:46.385Z,7.15
2024-01-04T00:48:17.496Z,7.12
2024-01-04T00:50:48.889Z,7.03
2024-01-04T00:53:19.942Z,6.92
2024-01-04T00:55:50.783Z,6.88
2024-01-04T00:58:21.782Z,6.85
2024-01-04T01:00:52.694Z,6.84
2024-01-04T01:03:23.702Z,6.84
2024-01-04T01:05:54.753Z,6.86
2024-01-04T01:08:26.432Z,6.84
2024-01-04T01:10:57.217Z,6.84
2024-01-04T01:13:27.968Z,6.87
2024-01-04T01:15:58.888Z,6.89
2024-01-04T01:18:29.935Z,6.92
2024-01-04T01:21:01.717Z,6.92
2024-01-04T01:23:32.641Z,6.92
2024-01-04T01:26:04.098Z,6.95
2024-01-04T01:28:34.981Z,6.97
2024-01-04T01:31:06.057Z,7.01
2024-01-04T01:33:37.248Z,7.01
2024-01-04T01:36:08.763Z,7.00
2024-01-04T01:38:39.821Z,6.99
2024-01-04T01:41:10.765Z,6.97
2024-01-04T01:43:41.590Z,6.99
2024-01-04T01:46:12.512Z,6.99
2024-01-04T01:48:43.660Z,7.00
2024-01-04T01:51:15.012Z,7.02
2024-01-04T01:53:46.999Z,7.00
2024-01-04T01:56:18.081Z,6.95
2024-01-04T01:58:48.845Z,6.90
2024-01-04T02:01:19.747Z,6.83
2024-01-04T02:03:50.645Z,6.74
2024-01-04T02:06:21.576Z,6.70
2024-01-04T02:08:52.544Z,6.66
2024-01-04T02:11:24.283Z,6.63
2024-01-04T02:13:55.197Z,6.63
2024-01-04T02:16:26.094Z,6.66
2024-01-04T02:18:57.039Z,6.67
2024-01-04T02:21:28.040Z,6.66
2024-01-04T02:23:58.835Z,6.70
2024-01-04T02:26:29.710Z,6.69
2024-01-04T02:29:01.039Z,6.66
2024-01-04T02:31:31.919Z,6.66
2024-01-04T02:34:02.905Z,6.69
2024-01-04T02:36:34.356Z,6.70
2024-01-04T02:39:05.940Z,6.69
2024-01-04T02:41:36.886Z,6.71
2024-01-04T02:44:09.176Z,6.72
2024-01-04T02:46:42.144Z,6.71
2024-01-04T02:49:13.283Z,6.71
2024-01-04T02:51:44.142Z,6.73
2024-01-04T02:54:15.122Z,6.75
2024-01-04T02:56:46.021Z,6.80
2024-01-04T02:59:16.981Z,6.83
2024-01-04T03:01:49.894Z,6.81
2024-01-04T03:04:20.841Z,6.76
2024-01-04T03:06:52.034Z,6.74
2024-01-04T03:09:22.970Z,6.71
2024-01-04T03:11:53.926Z,6.71
2024-01-04T03:14:24.991Z,6.71
2024-01-04T03:16:55.998Z,6.74
2024-01-04T03:19:26.915Z,6.73
2024-01-04T03:29:10.425Z,6.80
2024-01-04T03:31:41.237Z,6.85
2024-01-04T03:34:12.309Z,6.89
2024-01-04T03:36:43.457Z,6.92
2024-01-04T03:39:14.596Z,6.92
2024-01-04T03:41:45.776Z,6.92
2024-01-04T03:44:16.696Z,6.94
2024-01-04T03:46:47.567Z,6.99
2024-01-04T03:49:18.460Z,7.06
2024-01-04T03:51:49.331Z,7.12
2024-01-04T03:54:20.293Z,7.17
2024-01-04T03:56:51.275Z,7.21
2024-01-04T03:59:22.136Z,7.21
2024-01-04T04:01:52.993Z,7.17
2024-01-04T04:04:23.905Z,7.13
2024-01-04T04:06:54.866Z,7.07
2024-01-04T04:09:25.943Z,7.05
2024-01-04T04:11:56.962Z,7.02
2024-01-04T04:14:27.884Z,6.98
2024-01-04T04:16:58.881Z,6.96
2024-01-04T04:19:29.990Z,6.92
2024-01-04T04:22:00.931Z,6.91
2024-01-04T04:24:32.671Z,6.91
2024-01-04T04:27:03.589Z,6.91
2024-01-04T04:29:34.588Z,6.89
2024-01-04T04:32:05.851Z,6.90
2024-01-04T04:34:36.734Z,6.92
2024-01-04T04:37:07.724Z,6.93
2024-01-04T04:39:38.640Z,6.94
2024-01-04T04:42:09.681Z,6.92
2024-01-04T04:44:40.837Z,6.89
2024-01-04T04:47:11.803Z,6.90
2024-01-04T04:49:42.954Z,6.89
2024-01-04T04:52:13.949Z,6.87
2024-01-04T04:54:44.682Z,6.87
2024-01-04T04:57:15.465Z,6.88
2024-01-04T04:59:46.492Z,6.88
2024-01-04T05:02:17.359Z,6.86
2024-01-04T05:04:48.300Z,6.90
2024-01-04T05:07:19.169Z,6.91
2024-01-04T05:09:49.945Z,6.93
2024-01-04T05:12:20.848Z,6.92
2024-01-04T05:14:51.879Z,6.90
2024-01-04T05:17:22.615Z,6.90
2024-01-04T05:19:53.502Z,6.93
2024-01-04T05:22:24.518Z,6.91
2024-01-04T05:24:55.423Z,6.83
2024-01-04T05:27:26.372Z,6.72
2024-01-04T05:29:57.961Z,6.70
2024-01-04T05:32:29.021Z,6.69
2024-01-04T05:34:59.928Z,6.67
2024-01-04T05:37:30.676Z,6.66
2024-01-04T05:40:01.866Z,6.64
2024-01-04T05:42:33.004Z,6.62
2024-01-04T05:45:05.465Z,6.61
2024-01-04T05:47:36.850Z,6.60
2024-01-04T05:50:09.344Z,6.61
2024-01-04T05:52:40.209Z,6.63
2024-01-04T05:55:11.563Z,6.64
2024-01-04T05:57:42.490Z,6.64
2024-01-04T06:00:18.376Z,6.64
2024-01-04T06:02:50.147Z,6.66
2024-01-04T06:05:21.318Z,6.67
2024-01-04T06:07:52.284Z,6.67
2024-01-04T06:10:23.578Z,6.66
2024-01-04T06:12:54.434Z,6.67
2024-01-04T06:15:25.493Z,6.69
2024-01-04T06:17:56.560Z,6.71
2024-01-04T06:20:27.572Z,6.73
2024-01-04T06:22:58.450Z,6.74
2024-01-04T06:25:29.309Z,6.76
2024-01-04T06:28:00.490Z,6.78
2024-01-04T06:30:33.602Z,6.79
2024-01-04T06:33:04.581Z,6.79
2024-01-04T06:35:35.572Z,6.81
2024-01-04T06:38:09.447Z,6.81
2024-01-04T06:40:41.818Z,6.85
2024-01-04T06:43:12.733Z,6.87
2024-01-04T06:45:43.716Z,6.87
2024-01-04T06:48:14.784Z,6.88
2024-01-04T06:50:46.101Z,6.87
2024-01-04T06:53:16.993Z,6.87
2024-01-04T06:55:47.817Z,6.87
2024-01-04T06:58:18.692Z,6.87
2024-01-04T07:00:50.021Z,6.89
2024-01-04T07:03:21.904Z,6.91
2024-01-04T07:05:53.149Z,6.90
2024-01-04T07:08:24.690Z,6.86
2024-01-04T07:10:55.664Z,6.83
2024-01-04T07:13:27.082Z,6.83
2024-01-04T07:15:57.846Z,6.81
2024-01-04T07:18:28.889Z,6.83
2024-01-04T07:20:59.893Z,6.87
2024-01-04T07:23:32.081Z,6.86
2024-01-04T07:26:04.096Z,6.84
2024-01-04T07:28:34.974Z,6.78
2024-01-04T07:31:06.008Z,6.77
2024-01-04T07:33:37.071Z,6.79
2024-01-04T07:36:08.722Z,6.85
2024-01-04T07:38:39.969Z,6.91
2024-01-04T07:41:10.953Z,6.98
2024-01-04T07:43:42.191Z,7.06
2024-01-04T07:46:13.002Z,7.13
2024-01-04T07:48:43.984Z,7.21
2024-01-04T07:51:15.192Z,7.28
2024-01-04T07:53:46.485Z,7.36
2024-01-04T07:56:17.361Z,7.42
2024-01-04T07:58:48.265Z,7.47
2024-01-04T08:01:19.249Z,7.51
2024-01-04T08:03:50.345Z,7.52
2024-01-04T08:06:21.609Z,7.53
2024-01-04T08:08:53.771Z,7.58
2024-01-04T08:11:25.115Z,7.61
2024-01-04T08:13:55.917Z,7.64
2024-01-04T08:16:26.833Z,7.70
2024-01-04T08:18:57.934Z,7.75
2024-01-04T08:21:29.296Z,7.77
2024-01-04T08:24:00.318Z,7.84
2024-01-04T08:26:31.342Z,7.94
2024-01-04T08:29:02.619Z,8.06
2024-01-04T08:31:33.659Z,8.16
2024-01-04T08:34:05.029Z,8.19
2024-01-04T08:36:36.131Z,8.23
2024-01-04T08:39:08.600Z,8.25
2024-01-04T08:41:39.664Z,8.26
2024-01-04T08:44:10.809Z,8.24
2024-01-04T08:46:41.692Z,8.24
2024-01-04T08:49:13.403Z,8.24
2024-01-04T08:51:44.482Z,8.24
2024-01-04T08:54:15.440Z,8.29
2024-01-04T08:56:46.412Z,8.34
2024-01-04T08:59:17.213Z,8.39
2024-01-04T09:01:48.076Z,8.42
2024-01-04T09:04:20.381Z,8.46
2024-01-04T09:06:51.266Z,8.51
2024-01-04T09:09:22.310Z,8.56
2024-01-04T09:11:53.449Z,8.60
2024-01-04T09:14:24.367Z,8.64
2024-01-04T09:16:55.108Z,8.70
2024-01-04T09:19:28.209Z,8.77
2024-01-04T09:22:00.180Z,8.82
2024-01-04T09:24:31.265Z,8.86
2024-01-04T09:27:04.276Z,8.92
2024-01-04T09:29:35.435Z,8.99
2024-01-04T09:32:06.953Z,9.06
2024-01-04T09:34:38.192Z,9.13
2024-01-04T09:37:09.088Z,9.21
2024-01-04T09:39:41.368Z,9.32
2024-01-04T09:42:12.440Z,9.41
2024-01-04T09:44:43.505Z,9.52
2024-01-04T09:47:14.644Z,9.64
2024-01-04T09:49:45.966Z,9.76
2024-01-04T09:52:17.116Z,9.89
2024-01-04T09:54:48.002Z,10.01
2024-01-04T09:57:18.999Z,10.13
2024-01-04T09:59:50.023Z,10.24
2024-01-04T10:02:20.955Z,10.37
2024-01-04T10:04:54.358Z,10.58
2024-01-04T10:07:26.929Z,10.81
2024-01-04T10:10:03.914Z,11.08
2024-01-04T10:12:35.469Z,11.42
2024-01-04T10:15:09.449Z,11.75
2024-01-04T10:17:40.467Z,12.10
2024-01-04T10:20:12.995Z,12.46
2024-01-04T10:22:44.432Z,12.67
2024-01-04T10:25:19.829Z,12.82
2024-01-04T10:28:00.519Z,13.08
2024-01-04T10:30:31.716Z,13.24
2024-01-04T10:33:02.817Z,13.23
2024-01-04T10:35:33.822Z,13.23
2024-01-04T10:38:04.733Z,13.24
2024-01-04T10:40:35.782Z,13.22
2024-01-04T10:43:06.648Z,13.20
2024-01-04T10:45:37.591Z,13.21
2024-01-04T10:48:09.860Z,13.29
2024-01-04T10:50:42.041Z,13.33
2024-01-04T10:53:13.614Z,13.29
2024-01-04T10:55:44.522Z,13.26
2024-01-04T10:58:15.379Z,13.26
2024-01-04T11:00:46.456Z,13.27
2024-01-04T11:03:17.474Z,13.32
2024-01-04T11:05:50.437Z,13.37
2024-01-04T11:08:22.016Z,13.41
2024-01-04T11:10:53.519Z,13.43
2024-01-04T11:13:24.434Z,13.43
2024-01-04T11:15:55.821Z,13.50
2024-01-04T11:18:35.095Z,13.60
2024-01-04T11:21:11.094Z,13.63
2024-01-04T11:23:57.142Z,13.65
2024-01-04T11:26:31.111Z,13.66
2024-01-04T11:29:08.009Z,13.68
2024-01-04T11:31:43.311Z,13.70
2024-01-04T11:34:14.636Z,13.68
2024-01-04T11:36:45.691Z,13.68
2024-01-04T11:39:16.633Z,13.62
2024-01-04T11:41:47.623Z,13.48
2024-01-04T11:44:19.271Z,13.31
2024-01-04T11:46:56.657Z,13.19
2024-01-04T11:49:27.644Z,13.07
2024-01-04T11:52:04.944Z,13.08
2024-01-04T11:54:37.841Z,13.07
2024-01-04T11:57:19.557Z,13.06
2024-01-04T11:59:51.475Z,13.04
2024-01-04T12:02:23.399Z,12.99
2024-01-04T12:04:54.361Z,12.90
2024-01-04T12:07:25.716Z,12.84
2024-01-04T12:09:59.361Z,12.79
2024-01-04T12:12:30.255Z,12.73
2024-01-04T12:15:04.643Z,12.65
2024-01-04T12:17:35.701Z,12.62
2024-01-04T12:20:11.482Z,12.62
2024-01-04T12:22:42.445Z,12.63
2024-01-04T12:25:13.566Z,12.67
2024-01-04T12:27:44.594Z,12.64
2024-01-04T12:30:15.774Z,12.62
2024-01-04T12:32:46.773Z,12.58
2024-01-04T12:35:20.594Z,12.54
2024-01-04T12:38:01.596Z,12.52
2024-01-04T12:40:40.294Z,12.52
2024-01-04T12:43:11.598Z,12.54
2024-01-04T12:45:42.572Z,12.56
2024-01-04T12:48:13.743Z,12.60
2024-01-04T12:50:44.874Z,12.63
2024-01-04T12:53:16.468Z,12.65
2024-01-04T12:55:47.964Z,12.64
2024-01-04T12:58:18.881Z,12.66
2024-01-04T13:00:50.047Z,12.68
2024-01-04T13:03:20.981Z,12.68
2024-01-04T13:05:52.203Z,12.69
2024-01-04T13:08:23.223Z,12.66
2024-01-04T13:10:54.480Z,12.59
2024-01-04T13:13:25.368Z,12.53
2024-01-04T13:15:56.800Z,12.52
2024-01-04T13:18:27.835Z,12.49
2024-01-04T13:20:58.837Z,12.48
2024-01-04T13:23:31.114Z,12.48
2024-01-04T13:26:02.112Z,12.46
2024-01-04T13:28:33.166Z,12.46
2024-01-04T13:31:04.247Z,12.46
2024-01-04T13:33:35.662Z,12.43
2024-01-04T13:36:07.693Z,12.42
2024-01-04T13:38:40.004Z,12.42
2024-01-04T13:41:10.978Z,12.42
2024-01-04T13:43:42.301Z,12.39
2024-01-04T13:46:13.128Z,12.34
2024-01-04T13:48:44.430Z,12.30
2024-01-04T13:51:15.551Z,12.30
2024-01-04T13:53:46.567Z,12.32
2024-01-04T13:56:17.444Z,12.32
2024-01-04T13:58:48.402Z,12.28
2024-01-04T14:01:19.533Z,12.24
2024-01-04T14:03:50.693Z,12.22
2024-01-04T14:06:21.781Z,12.20
2024-01-04T14:08:55.136Z,12.23
2024-01-04T14:11:26.125Z,12.27
2024-01-04T14:13:57.070Z,12.28
2024-01-04T14:16:27.836Z,12.30
2024-01-04T14:18:58.817Z,12.29
2024-01-04T14:21:29.869Z,12.25
2024-01-04T14:24:00.704Z,12.23
2024-01-04T14:26:31.727Z,12.21
2024-01-04T14:29:03.341Z,12.17
2024-01-04T14:31:34.294Z,12.12
2024-01-04T14:34:05.316Z,12.11
2024-01-04T14:36:36.324Z,12.11
2024-01-04T14:39:07.823Z,12.10
2024-01-04T14:41:42.330Z,12.08
2024-01-04T14:44:13.226Z,12.04
2024-01-04T14:46:44.221Z,12.00
2024-01-04T14:49:15.309Z,12.00
2024-01-04T14:51:46.214Z,11.98
2024-01-04T14:54:17.217Z,11.96
2024-01-04T14:56:48.160Z,11.98
2024-01-04T14:59:19.086Z,11.96
2024-01-04T15:01:49.980Z,11.92
2024-01-04T15:04:20.915Z,11.90
2024-01-04T15:06:51.785Z,11.86
2024-01-04T15:09:22.822Z,11.83
2024-01-04T15:11:54.396Z,11.80
2024-01-04T15:14:25.824Z,11.80
2024-01-04T15:16:56.758Z,11.81
2024-01-04T15:19:27.950Z,11.77
2024-01-04T15:21:58.977Z,11.72
2024-01-04T15:24:30.044Z,11.69
2024-01-04T15:27:01.492Z,11.67
2024-01-04T15:29:32.430Z,11.68
2024-01-04T15:32:03.295Z,11.72
2024-01-04T15:34:34.375Z,11.73
2024-01-04T15:37:06.071Z,11.72
2024-01-04T15:39:36.939Z,11.70
2024-01-04T15:42:08.228Z,11.66
2024-01-04T15:44:39.343Z,11.61
2024-01-04T15:47:10.621Z,11.60
2024-01-04T15:49:42.999Z,11.59
2024-01-04T15:52:13.941Z,11.59
2024-01-04T15:54:44.911Z,11.60
2024-01-04T15:57:15.905Z,11.56
2024-01-04T15:59:46.941Z,11.48
2024-01-04T16:02:17.919Z,11.41
2024-01-04T16:04:48.902Z,11.35
2024-01-04T16:07:20.258Z,11.30
2024-01-04T16:09:51.386Z,11.25
2024-01-04T16:12:27.164Z,11.22
2024-01-04T16:14:58.240Z,11.21
2024-01-04T16:17:29.256Z,11.16
2024-01-04T16:20:00.341Z,11.08
2024-01-04T16:22:31.628Z,11.01
2024-01-04T16:25:02.717Z,10.98
2024-01-04T16:27:33.677Z,10.93
2024-01-04T16:30:05.384Z,10.87
2024-01-04T16:32:38.145Z,10.79
2024-01-04T16:35:10.448Z,10.75
2024-01-04T16:37:41.249Z,10.73
2024-01-04T16:40:14.192Z,10.69
2024-01-04T16:42:45.182Z,10.66
2024-01-04T16:45:16.494Z,10.66
2024-01-04T16:47:47.545Z,10.63
2024-01-04T16:50:18.946Z,10.59
2024-01-04T16:52:49.723Z,10.53
2024-01-04T16:55:20.636Z,10.47
2024-01-04T16:57:51.736Z,10.44
2024-01-04T17:00:23.229Z,10.40
2024-01-04T17:02:55.101Z,10.38
2024-01-04T17:05:26.177Z,10.37
2024-01-04T17:07:57.059Z,10.34
2024-01-04T17:10:27.962Z,10.31
2024-01-04T17:12:58.806Z,10.30
2024-01-04T17:15:29.669Z,10.23
2024-01-04T17:18:00.997Z,10.17
2024-01-04T17:20:32.126Z,10.14
2024-01-04T17:23:03.455Z,10.07
2024-01-04T17:25:34.566Z,10.02
2024-01-04T17:28:06.239Z,9.99
2024-01-04T17:30:37.604Z,9.93
2024-01-04T17:33:08.761Z,9.86
2024-01-04T17:35:46.719Z,9.84
2024-01-04T17:38:23.164Z,9.80
2024-01-04T17:40:54.013Z,9.76
2024-01-04T17:43:25.528Z,9.73
2024-01-04T17:45:56.526Z,9.72
2024-01-04T17:48:27.702Z,9.71
2024-01-04T17:50:58.762Z,9.64
2024-01-04T17:53:29.564Z,9.55
2024-01-04T17:56:00.530Z,9.48
2024-01-04T17:58:32.502Z,9.41
2024-01-04T18:01:03.550Z,9.34
2024-01-04T18:03:34.543Z,9.30
2024-01-04T18:06:06.307Z,9.29
2024-01-04T18:08:37.227Z,9.24
2024-01-04T18:11:08.095Z,9.17
2024-01-04T18:13:42.340Z,9.12
2024-01-04T18:16:14.003Z,9.05
2024-01-04T18:18:45.010Z,8.99
2024-01-04T18:21:19.885Z,8.94
2024-01-04T18:23:54.240Z,8.88
2024-01-04T18:26:25.741Z,8.86
2024-01-04T18:28:56.889Z,8.83
2024-01-04T18:31:27.918Z,8.79
2024-01-04T18:34:00.179Z,8.75
2024-01-04T18:36:31.539Z,8.74
2024-01-04T18:39:04.678Z,8.74
2024-01-04T18:41:37.073Z,8.73
2024-01-04T18:44:08.406Z,8.72
2024-01-04T18:46:39.268Z,8.72
2024-01-04T18:49:13.632Z,8.73
2024-01-04T18:51:44.662Z,8.71
2024-01-04T18:54:15.613Z,8.69
2024-01-04T18:56:46.712Z,8.65
2024-01-04T18:59:19.101Z,8.62
2024-01-04T19:01:50.543Z,8.60
2024-01-04T19:04:21.341Z,8.60
2024-01-04T19:06:52.469Z,8.60
2024-01-04T19:16:25.802Z,8.61
2024-01-04T19:18:59.734Z,8.60
2024-01-04T19:21:31.029Z,8.59
2024-01-04T19:24:02.367Z,8.59
2024-01-04T19:26:33.257Z,8.58
2024-01-04T19:29:04.152Z,8.56
2024-01-04T19:31:35.099Z,8.57
2024-01-04T19:34:07.320Z,8.58
2024-01-04T19:36:38.658Z,8.59
2024-01-04T19:39:09.958Z,8.60
2024-01-04T19:41:42.960Z,8.64
2024-01-04T19:44:14.288Z,8.68
2024-01-04T19:46:47.325Z,8.71
2024-01-04T19:49:18.216Z,8.70
2024-01-04T19:51:49.472Z,8.71
2024-01-04T19:54:20.434Z,8.70
2024-01-04T19:56:51.488Z,8.69
2024-01-04T19:59:22.379Z,8.69
2024-01-04T20:01:53.564Z,8.66
2024-01-04T20:04:24.621Z,8.64
2024-01-04T20:06:55.528Z,8.63
2024-01-04T20:09:26.356Z,8.62
2024-01-04T20:11:57.330Z,8.61
2024-01-04T20:14:28.353Z,8.55
2024-01-04T20:17:00.284Z,8.47
2024-01-04T20:19:31.340Z,8.42
2024-01-04T20:22:03.353Z,8.40
2024-01-04T20:24:34.277Z,8.39
2024-01-04T20:27:05.393Z,8.38
2024-01-04T20:29:39.001Z,8.35
2024-01-04T20:32:10.463Z,8.34
2024-01-04T20:34:41.495Z,8.35
2024-01-04T20:37:15.037Z,8.36
2024-01-04T20:39:46.167Z,8.38
2024-01-04T20:42:16.973Z,8.40
2024-01-04T20:44:47.940Z,8.42
2024-01-04T20:47:18.856Z,8.43
2024-01-04T20:49:51.842Z,8.45
2024-01-04T20:52:23.278Z,8.47
2024-01-04T20:54:54.183Z,8.49
2024-01-04T20:57:25.494Z,8.52
2024-01-04T20:59:56.375Z,8.54
2024-01-04T21:02:27.491Z,8.55
2024-01-04T21:04:59.628Z,8.58
2024-01-04T21:07:31.116Z,8.60
2024-01-04T21:10:02.070Z,8.60
2024-01-04T21:12:33.301Z,8.61
2024-01-04T21:15:22.143Z,8.64
2024-01-04T21:17:53.166Z,8.61
2024-01-04T21:20:24.169Z,8.61
2024-01-04T21:22:55.062Z,8.61
2024-01-04T21:25:26.007Z,8.61
2024-01-04T21:27:57.068Z,8.60
2024-01-04T21:30:28.108Z,8.60
2024-01-04T21:32:59.090Z,8.60
2024-01-04T21:37:40.117Z,8.60
2024-01-04T21:40:36.766Z,8.62
2024-01-04T21:43:08.746Z,8.64
2024-01-04T21:45:41.206Z,8.66
2024-01-04T21:48:12.999Z,8.65
2024-01-04T21:50:46.234Z,8.67
2024-01-04T21:53:17.457Z,8.68
2024-01-04T21:55:48.470Z,8.67
2024-01-04T21:58:19.405Z,8.68
2024-01-04T22:00:50.607Z,8.69
2024-01-04T22:03:21.879Z,8.68
2024-01-04T22:05:53.031Z,8.68
2024-01-04T22:08:23.962Z,8.67
2024-01-04T22:10:54.919Z,8.67
2024-01-04T22:13:25.783Z,8.67
2024-01-04T22:15:56.748Z,8.65
2024-01-04T22:18:27.838Z,8.63
2024-01-04T22:20:58.979Z,8.60
2024-01-04T22:23:29.945Z,8.56
2024-01-04T22:26:00.846Z,8.50
2024-01-04T22:28:31.737Z,8.44
2024-01-04T22:31:02.777Z,8.41
2024-01-04T22:33:33.997Z,8.37
2024-01-04T22:36:05.415Z,8.35
2024-01-04T22:38:37.227Z,8.33
2024-01-04T22:41:08.329Z,8.29
2024-01-04T22:43:39.164Z,8.20
2024-01-04T22:46:10.030Z,8.08
2024-01-04T22:48:40.919Z,8.00
2024-01-04T22:51:12.240Z,7.97
2024-01-04T22:53:43.062Z,7.93
2024-01-04T22:56:14.008Z,7.90
2024-01-04T22:58:45.393Z,7.80
2024-01-04T23:01:16.278Z,7.71
2024-01-04T23:03:47.285Z,7.65
2024-01-04T23:06:18.545Z,7.60
2024-01-04T23:08:49.761Z,7.52
2024-01-04T23:11:20.679Z,7.48
2024-01-04T23:13:51.591Z,7.42
2024-01-04T23:16:22.597Z,7.39
2024-01-04T23:18:53.637Z,7.37
2024-01-04T23:21:25.023Z,7.34
2024-01-04T23:23:55.899Z,7.32
2024-01-04T23:26:27.719Z,7.31
2024-01-04T23:28:58.721Z,7.32
2024-01-04T23:31:29.640Z,7.33
2024-01-04T23:34:00.772Z,7.35
2024-01-04T23:36:31.861Z,7.36
2024-01-04T23:39:02.811Z,7.36
2024-01-04T23:41:33.666Z,7.37
2024-01-04T23:44:04.593Z,7.36
2024-01-04T23:46:35.442Z,7.34
2024-01-04T23:49:06.835Z,7.33
2024-01-04T23:51:39.258Z,7.27
2024-01-04T23:54:10.297Z,7.21
2024-01-04T23:56:41.494Z,7.14
2024-01-04T23:59:12.598Z,7.10
